Time;durP1;ratioP1;P1;durP2;ratioP2;P2;SDS_P1;SDS_P2;PMS_P1;PMS_P2;Temp;Humidity;BMP_temperature;BMP_pressure;BME280_temperature;BME280_humidity;BME280_pressure;Samples;Min_cycle;Max_cycle;Signal;HPM_P1;HPM_P2
2023/08/05 00:01:11;;;;;;;0.05;0.05;;;13.40;99.90;;;;;;5028668;28;20053;-86
2023/08/05 00:03:37;;;;;;;0.00;0.00;;;13.40;99.90;;;;;;5028619;28;20060;-86
2023/08/05 00:06:03;;;;;;;0.35;0.10;;;13.30;99.90;;;;;;5044965;28;20075;-86
2023/08/05 00:08:28;;;;;;;0.28;0.15;;;13.30;99.90;;;;;;5027992;28;20415;-86
2023/08/05 00:10:54;;;;;;;0.28;0.28;;;13.30;99.90;;;;;;5028723;28;20045;-86
2023/08/05 00:13:20;;;;;;;0.38;0.20;;;14.30;99.90;;;;;;5034729;28;20411;-86
2023/08/05 00:15:45;;;;;;;11.80;1.13;;;13.30;99.90;;;;;;5028306;28;20060;-86
2023/08/05 00:18:11;;;;;;;0.15;0.15;;;13.30;99.90;;;;;;5045021;28;20556;-86
2023/08/05 00:20:37;;;;;;;0.05;0.00;;;13.30;99.90;;;;;;5027805;28;20045;-86
2023/08/05 00:23:03;;;;;;;0.20;0.20;;;13.40;99.90;;;;;;5028180;28;20033;-86
2023/08/05 00:25:28;;;;;;;0.20;0.20;;;13.70;99.90;;;;;;5044289;28;20087;-86
2023/08/05 00:27:54;;;;;;;0.00;0.00;;;13.40;99.90;;;;;;5046043;28;20048;-86
2023/08/05 00:30:20;;;;;;;0.00;0.00;;;13.80;99.90;;;;;;5044595;28;20041;-86
2023/08/05 00:32:45;;;;;;;0.20;0.20;;;13.40;99.90;;;;;;5027949;28;20500;-86
2023/08/05 00:35:11;;;;;;;0.10;0.10;;;14.60;99.90;;;;;;5027719;28;20056;-86
2023/08/05 00:37:38;;;;;;;0.43;0.40;;;13.60;99.90;;;;;;5046140;28;20080;-86
2023/08/05 00:40:05;;;;;;;0.25;0.17;;;13.40;99.90;;;;;;5045879;28;20801;-86
2023/08/05 00:42:31;;;;;;;0.03;0.03;;;13.40;99.90;;;;;;5027667;28;20056;-86
2023/08/05 00:44:57;;;;;;;0.20;0.17;;;13.40;99.90;;;;;;5027972;28;20045;-86
2023/08/05 00:47:23;;;;;;;0.25;0.10;;;13.30;99.90;;;;;;5027921;28;20059;-86
2023/08/05 00:49:52;;;;;;;0.47;0.30;;;13.40;99.90;;;;;;5027896;28;20045;-86
2023/08/05 00:52:20;;;;;;;0.00;0.00;;;13.30;99.90;;;;;;5028038;28;20430;-86
2023/08/05 00:54:46;;;;;;;0.28;0.20;;;13.30;99.90;;;;;;5044498;28;20053;-86
2023/08/05 00:57:12;;;;;;;0.10;0.10;;;14.30;99.90;;;;;;5031122;28;20136;-86
2023/08/05 00:59:39;;;;;;;1.33;0.82;;;13.30;99.90;;;;;;5031879;28;20136;-86
2023/08/05 01:02:05;;;;;;;0.47;0.35;;;14.00;99.90;;;;;;5031545;28;20045;-86
2023/08/05 01:04:31;;;;;;;0.08;0.08;;;13.20;99.90;;;;;;5049852;28;20046;-86
2023/08/05 01:06:58;;;;;;;1.08;0.15;;;13.30;99.90;;;;;;5048121;28;20616;-86
2023/08/05 01:09:25;;;;;;;0.00;0.00;;;13.20;99.90;;;;;;5031397;28;20053;-86
2023/08/05 01:11:50;;;;;;;0.52;0.40;;;13.20;99.90;;;;;;5030952;28;20044;-86
2023/08/05 01:14:16;;;;;;;0.08;0.08;;;13.20;99.90;;;;;;5049297;28;20083;-86
2023/08/05 01:16:42;;;;;;;0.77;0.57;;;13.90;99.90;;;;;;5031497;28;20053;-86
2023/08/05 01:19:18;;;;;;;0.40;0.32;;;13.90;99.90;;;;;;5031247;28;20055;-86
2023/08/05 01:21:47;;;;;;;;;;;13.10;99.90;;;;;;5032032;28;20052;-86
2023/08/05 01:24:41;;;;;;;0.22;0.15;;;13.10;99.90;;;;;;5031842;28;19925;-86
2023/08/05 01:27:08;;;;;;;0.30;0.20;;;12.90;99.90;;;;;;5031685;28;20068;-86
2023/08/05 01:29:34;;;;;;;0.13;0.13;;;12.70;99.90;;;;;;5031361;28;20045;-86
2023/08/05 01:32:00;;;;;;;1.17;0.63;;;12.50;99.90;;;;;;5031393;28;20500;-86
2023/08/05 01:34:26;;;;;;;0.00;0.00;;;12.60;99.90;;;;;;5047663;28;20064;-86
2023/08/05 01:36:52;;;;;;;0.32;0.30;;;12.30;1.00;;;;;;5048014;28;20087;-86
2023/08/05 01:39:17;;;;;;;0.22;0.22;;;12.20;1.00;;;;;;5030840;28;20048;-85
2023/08/05 01:41:43;;;;;;;0.00;0.00;;;12.10;1.00;;;;;;5047638;28;20140;-86
2023/08/05 01:44:09;;;;;;;0.00;0.00;;;12.00;1.00;;;;;;5030847;28;20048;-86
2023/08/05 01:46:34;;;;;;;0.35;0.35;;;12.00;94.70;;;;;;5047260;28;20414;-86
2023/08/05 01:49:00;;;;;;;0.17;0.10;;;11.90;99.90;;;;;;5047619;28;20449;-86
2023/08/05 01:51:26;;;;;;;3.90;1.08;;;11.90;99.90;;;;;;5047739;28;20940;-86
2023/08/05 01:53:51;;;;;;;0.28;0.20;;;11.80;99.90;;;;;;5030597;28;20099;-86
2023/08/05 01:56:17;;;;;;;0.20;0.17;;;11.80;99.90;;;;;;5047372;28;20131;-86
2023/08/05 01:58:42;;;;;;;0.00;0.00;;;12.40;99.90;;;;;;5047650;28;20067;-86
2023/08/05 02:01:08;;;;;;;0.00;0.00;;;11.80;99.90;;;;;;5030554;28;20091;-86
2023/08/05 02:03:33;;;;;;;0.17;0.17;;;11.80;99.90;;;;;;5030339;28;20045;-86
2023/08/05 02:05:59;;;;;;;0.00;0.00;;;11.90;99.90;;;;;;5031521;28;20083;-86
2023/08/05 02:08:25;;;;;;;0.00;0.00;;;11.90;99.90;;;;;;5030127;28;20166;-85
2023/08/05 02:10:50;;;;;;;0.55;0.52;;;11.90;99.90;;;;;;5030593;28;20064;-86
2023/08/05 02:13:16;;;;;;;0.45;0.45;;;11.90;92.60;;;;;;5030478;28;20048;-86
2023/08/05 02:15:42;;;;;;;0.00;0.00;;;11.90;90.20;;;;;;5029506;28;20094;-85
2023/08/05 02:18:08;;;;;;;0.00;0.00;;;11.80;66.20;;;;;;5046950;28;20048;-85
2023/08/05 02:20:34;;;;;;;0.00;0.00;;;11.70;63.90;;;;;;5029863;28;20053;-87
2023/08/05 02:23:00;;;;;;;0.00;0.00;;;11.70;62.70;;;;;;5030242;28;20100;-86
2023/08/05 02:25:26;;;;;;;0.25;0.25;;;11.60;61.60;;;;;;5030098;28;20625;-86
2023/08/05 02:27:55;;;;;;;1.65;0.43;;;11.40;61.90;;;;;;5046955;28;20088;-86
2023/08/05 02:30:20;;;;;;;0.10;0.10;;;11.30;73.30;;;;;;5029894;28;20049;-86
2023/08/05 02:32:46;;;;;;;0.20;0.20;;;11.90;92.00;;;;;;5046492;28;20134;-86
2023/08/05 02:35:11;;;;;;;0.00;0.00;;;11.10;99.90;;;;;;5046154;28;20092;-86
2023/08/05 02:37:39;;;;;;;0.00;0.00;;;11.00;98.50;;;;;;5046823;28;20135;-86
2023/08/05 02:40:05;;;;;;;0.17;0.17;;;12.20;97.00;;;;;;5029526;28;20044;-86
2023/08/05 02:42:31;;;;;;;0.47;0.30;;;10.80;99.90;;;;;;5029743;28;20103;-86
2023/08/05 02:44:56;;;;;;;1.33;0.28;;;10.70;99.90;;;;;;5030049;28;20442;-86
2023/08/05 02:47:22;;;;;;;0.08;0.08;;;10.60;99.90;;;;;;5030183;28;20067;-86
2023/08/05 02:49:48;;;;;;;1.65;0.60;;;10.50;99.90;;;;;;5029748;28;20052;-86
2023/08/05 02:52:13;;;;;;;0.20;0.20;;;10.60;99.90;;;;;;5029614;28;20503;-86
2023/08/05 02:54:39;;;;;;;0.32;0.32;;;10.60;99.90;;;;;;5029805;28;20045;-86
2023/08/05 02:57:04;;;;;;;2.45;0.55;;;10.50;99.90;;;;;;5029268;28;20126;-86
2023/08/05 02:59:30;;;;;;;0.38;0.38;;;10.50;99.90;;;;;;5029532;28;20155;-86
2023/08/05 03:01:56;;;;;;;0.00;0.00;;;10.50;99.90;;;;;;5029669;28;20090;-86
2023/08/05 03:04:21;;;;;;;0.22;0.22;;;10.50;99.90;;;;;;5028890;28;20045;-86
2023/08/05 03:06:47;;;;;;;0.30;0.22;;;10.50;99.90;;;;;;5047666;28;20037;-86
2023/08/05 03:09:13;;;;;;;0.65;0.50;;;10.40;99.90;;;;;;5046133;28;20403;-86
2023/08/05 03:11:39;;;;;;;0.13;0.10;;;10.40;99.90;;;;;;5028819;28;20056;-86
2023/08/05 03:14:05;;;;;;;0.20;0.20;;;10.30;99.90;;;;;;5028928;28;20033;-86
2023/08/05 03:16:31;;;;;;;0.05;0.05;;;10.30;99.90;;;;;;5028897;28;20049;-86
2023/08/05 03:18:56;;;;;;;0.50;0.28;;;10.30;99.90;;;;;;5028175;28;20108;-85
2023/08/05 03:21:22;;;;;;;1.80;1.00;;;10.30;99.90;;;;;;5028896;28;20048;-86
2023/08/05 03:23:47;;;;;;;0.10;0.10;;;10.30;99.90;;;;;;5045263;28;20051;-85
2023/08/05 03:26:13;;;;;;;0.28;0.28;;;10.80;99.90;;;;;;5028911;28;20561;-85
2023/08/05 03:28:39;;;;;;;0.00;0.00;;;10.20;99.90;;;;;;5045425;28;20045;-86
2023/08/05 03:31:05;;;;;;;0.52;0.52;;;10.30;99.90;;;;;;5028618;28;20138;-85
2023/08/05 03:33:30;;;;;;;0.00;0.00;;;10.00;99.90;;;;;;5028775;28;20750;-85
2023/08/05 03:35:56;;;;;;;0.00;0.00;;;10.00;99.90;;;;;;5028423;28;20128;-85
2023/08/05 03:38:22;;;;;;;0.00;0.00;;;10.10;99.90;;;;;;5028573;28;20052;-85
2023/08/05 03:40:47;;;;;;;0.30;0.25;;;10.10;99.90;;;;;;5028489;28;20033;-85
2023/08/05 03:43:13;;;;;;;0.60;0.60;;;10.20;99.90;;;;;;5045185;28;20107;-85
2023/08/05 03:45:39;;;;;;;0.63;0.43;;;10.30;99.90;;;;;;5028629;28;20044;-86
2023/08/05 03:48:05;;;;;;;0.50;0.50;;;10.30;99.90;;;;;;5028704;28;20090;-85
2023/08/05 03:50:30;;;;;;;0.17;0.10;;;10.50;99.90;;;;;;5028884;28;20053;-86
2023/08/05 03:52:57;;;;;;;0.00;0.00;;;10.60;99.90;;;;;;5028802;28;20091;-87
2023/08/05 03:55:26;;;;;;;0.00;0.00;;;10.70;99.90;;;;;;5045841;28;20052;-87
2023/08/05 03:57:51;;;;;;;0.10;0.10;;;10.80;99.90;;;;;;5028864;28;20045;-86
2023/08/05 04:00:17;;;;;;;0.10;0.10;;;11.00;99.90;;;;;;5045331;28;20095;-87
2023/08/05 04:02:43;;;;;;;0.73;0.35;;;11.00;99.90;;;;;;5028790;28;20110;-87
2023/08/05 04:05:09;;;;;;;0.00;0.00;;;11.10;99.90;;;;;;5045560;28;20648;-87
2023/08/05 04:07:35;;;;;;;0.00;0.00;;;11.10;99.90;;;;;;5045587;28;20048;-87
2023/08/05 04:10:01;;;;;;;0.63;0.52;;;11.20;99.90;;;;;;5045331;28;20049;-86
2023/08/05 04:12:26;;;;;;;0.35;0.08;;;11.20;99.90;;;;;;5047003;28;20114;-87
2023/08/05 04:14:53;;;;;;;0.20;0.20;;;11.30;99.90;;;;;;5028512;28;20060;-86
2023/08/05 04:17:20;;;;;;;0.08;0.05;;;11.30;99.90;;;;;;5045525;28;20053;-87
2023/08/05 04:19:47;;;;;;;0.25;0.15;;;11.40;99.90;;;;;;5045115;28;20053;-87
2023/08/05 04:22:16;;;;;;;0.45;0.35;;;11.40;99.90;;;;;;5028806;28;20033;-86
2023/08/05 04:24:44;;;;;;;0.32;0.20;;;11.40;99.90;;;;;;5047106;28;20048;-87
2023/08/05 04:27:10;;;;;;;0.00;0.00;;;11.50;99.90;;;;;;5029035;28;20057;-87
2023/08/05 04:29:36;;;;;;;0.00;0.00;;;11.50;99.90;;;;;;5046390;28;20060;-85
2023/08/05 04:32:02;;;;;;;6.35;0.80;;;11.50;99.90;;;;;;5048713;28;20076;-85
2023/08/05 04:34:31;;;;;;;0.17;0.17;;;11.50;99.90;;;;;;5050651;28;20061;-87
2023/08/05 04:36:57;;;;;;;0.10;0.10;;;11.60;99.90;;;;;;5049300;28;20495;-87
2023/08/05 04:39:23;;;;;;;0.20;0.20;;;11.70;99.90;;;;;;5033106;28;20048;-86
2023/08/05 04:41:48;;;;;;;0.60;0.28;;;11.70;99.90;;;;;;5049052;28;20044;-86
2023/08/05 04:44:14;;;;;;;0.65;0.30;;;11.70;99.90;;;;;;5050749;28;20036;-86
2023/08/05 04:46:39;;;;;;;0.00;0.00;;;11.70;99.90;;;;;;5050725;28;20071;-86
2023/08/05 04:49:07;;;;;;;0.40;0.30;;;11.80;99.90;;;;;;5032773;28;20514;-86
2023/08/05 04:51:34;;;;;;;0.13;0.08;;;11.90;99.90;;;;;;5032466;28;20061;-87
2023/08/05 04:54:00;;;;;;;0.15;0.15;;;12.00;99.90;;;;;;5032244;28;20049;-87
2023/08/05 04:56:26;;;;;;;1.40;0.95;;;12.10;99.90;;;;;;5032514;28;20502;-87
2023/08/05 04:58:52;;;;;;;0.30;0.28;;;12.20;99.90;;;;;;5049651;28;20045;-87
2023/08/05 05:01:17;;;;;;;0.00;0.00;;;12.20;99.90;;;;;;5032982;28;20057;-87
2023/08/05 05:03:48;;;;;;;0.75;0.47;;;12.30;99.90;;;;;;5049232;28;20048;-87
2023/08/05 05:06:14;;;;;;;0.55;0.10;;;12.40;99.90;;;;;;5056642;28;20053;-87
2023/08/05 05:08:40;;;;;;;0.08;0.08;;;12.60;99.90;;;;;;5049418;28;20049;-87
2023/08/05 05:11:09;;;;;;;0.52;0.22;;;12.70;99.90;;;;;;5032511;28;20041;-87
2023/08/05 05:13:35;;;;;;;1.45;0.90;;;13.20;99.90;;;;;;5050380;28;20048;-86
2023/08/05 05:16:03;;;;;;;0.63;0.50;;;13.90;99.90;;;;;;5032347;28;20041;-87
2023/08/05 05:18:28;;;;;;;0.10;0.10;;;12.90;99.90;;;;;;5050173;28;20521;-87
2023/08/05 05:20:54;;;;;;;0.25;0.25;;;13.10;99.90;;;;;;5031717;28;20128;-87
2023/08/05 05:23:20;;;;;;;1.55;0.85;;;13.10;99.90;;;;;;5031867;28;20102;-87
2023/08/05 05:25:46;;;;;;;0.75;0.43;;;13.30;99.90;;;;;;5031925;28;20648;-87
2023/08/05 05:28:11;;;;;;;0.00;0.00;;;14.00;99.90;;;;;;5031831;28;20463;-87
2023/08/05 05:30:37;;;;;;;0.28;0.20;;;13.60;99.90;;;;;;5048074;28;20048;-87
2023/08/05 05:33:03;;;;;;;0.00;0.00;;;13.70;99.90;;;;;;5049822;28;20124;-86
2023/08/05 05:35:29;;;;;;;0.30;0.30;;;13.70;92.70;;;;;;5049679;28;20079;-86
2023/08/05 05:37:55;;;;;;;0.50;0.30;;;13.80;23.40;;;;;;5031177;28;20461;-87
2023/08/05 05:40:21;;;;;;;7.13;0.95;;;13.90;44.40;;;;;;5050298;28;20045;-87
2023/08/05 05:42:49;;;;;;;0.15;0.15;;;14.00;7.80;;;;;;5032716;28;20170;-86
2023/08/05 05:45:15;;;;;;;0.45;0.45;;;14.10;1.00;;;;;;5051280;28;20040;-86
2023/08/05 05:47:41;;;;;;;0.45;0.45;;;14.20;99.90;;;;;;5033323;28;20128;-86
2023/08/05 05:50:07;;;;;;;1.20;0.47;;;15.10;99.90;;;;;;5050396;28;20218;-87
2023/08/05 05:52:34;;;;;;;0.52;0.13;;;14.50;1.00;;;;;;5055322;28;20127;-86
2023/08/05 05:55:00;;;;;;;1.55;0.90;;;14.70;99.90;;;;;;5059137;28;20110;-87
2023/08/05 05:57:25;;;;;;;0.30;0.20;;;15.00;90.70;;;;;;5070906;28;20044;-86
2023/08/05 05:59:51;;;;;;;0.20;0.20;;;15.10;1.00;;;;;;5072455;28;20043;-86
2023/08/05 06:02:17;;;;;;;0.47;0.10;;;15.20;1.00;;;;;;5072245;28;20025;-86
2023/08/05 06:04:44;;;;;;;3.75;0.85;;;15.30;7.40;;;;;;5074157;28;20041;-87
2023/08/05 06:07:10;;;;;;;0.00;0.00;;;15.40;1.00;;;;;;5070573;28;20059;-86
2023/08/05 06:09:35;;;;;;;0.20;0.20;;;15.50;82.80;;;;;;5067667;28;20037;-86
2023/08/05 06:12:01;;;;;;;0.80;0.45;;;15.70;23.40;;;;;;5056621;28;20060;-86
2023/08/05 06:14:29;;;;;;;0.95;0.30;;;15.90;99.90;;;;;;5049986;28;20048;-86
2023/08/05 06:16:55;;;;;;;0.20;0.20;;;16.50;99.90;;;;;;5050067;28;20602;-86
2023/08/05 06:19:21;;;;;;;0.00;0.00;;;17.10;35.60;;;;;;5049231;28;20123;-86
2023/08/05 06:21:47;;;;;;;0.13;0.13;;;17.50;11.00;;;;;;5048687;28;20036;-86
2023/08/05 06:24:12;;;;;;;0.28;0.22;;;19.10;99.90;;;;;;5048076;28;20517;-86
2023/08/05 06:26:38;;;;;;;0.03;0.03;;;18.40;99.90;;;;;;5047754;28;20459;-86
2023/08/05 06:29:04;;;;;;;0.65;0.40;;;19.30;99.90;;;;;;5047679;28;20068;-86
2023/08/05 06:31:30;;;;;;;0.17;0.17;;;19.80;99.90;;;;;;5048968;28;20076;-86
2023/08/05 06:33:56;;;;;;;0.08;0.08;;;20.50;13.80;;;;;;5048306;28;20123;-86
2023/08/05 06:36:22;;;;;;;2.80;0.52;;;20.90;99.90;;;;;;5048274;28;20056;-86
2023/08/05 06:38:48;;;;;;;0.10;0.10;;;21.10;99.90;;;;;;5047183;28;20383;-86
2023/08/05 06:41:13;;;;;;;0.45;0.45;;;20.70;99.90;;;;;;5047951;28;20041;-86
2023/08/05 06:43:39;;;;;;;0.28;0.28;;;20.50;99.90;;;;;;5029926;28;20052;-86
2023/08/05 06:46:05;;;;;;;0.20;0.10;;;20.30;99.90;;;;;;5053858;28;20056;-86
2023/08/05 06:48:31;;;;;;;0.20;0.20;;;19.90;99.90;;;;;;5046549;28;20049;-86
2023/08/05 06:50:56;;;;;;;0.38;0.30;;;20.20;99.90;;;;;;5046430;28;20060;-86
2023/08/05 06:53:22;;;;;;;0.77;0.52;;;20.90;99.90;;;;;;5045252;28;20081;-86
2023/08/05 06:55:48;;;;;;;0.00;0.00;;;21.60;99.90;;;;;;5047635;28;20125;-86
2023/08/05 06:58:13;;;;;;;0.17;0.17;;;22.50;99.90;;;;;;5045829;28;20186;-86
2023/08/05 07:00:39;;;;;;;1.00;0.90;;;23.40;99.90;;;;;;5047497;28;20558;-85
2023/08/05 07:03:05;;;;;;;0.25;0.25;;;23.20;99.90;;;;;;5046594;28;20041;-86
2023/08/05 07:05:31;;;;;;;0.22;0.20;;;22.60;99.90;;;;;;5046282;28;20575;-86
2023/08/05 07:07:56;;;;;;;0.25;0.25;;;21.80;92.20;;;;;;5046496;28;20090;-86
2023/08/05 07:10:23;;;;;;;0.20;0.20;;;21.30;49.10;;;;;;5046497;28;20052;-86
2023/08/05 07:12:49;;;;;;;0.20;0.20;;;20.90;27.20;;;;;;5046757;28;20056;-86
2023/08/05 07:15:14;;;;;;;0.40;0.40;;;20.40;41.60;;;;;;5046323;28;20037;-86
2023/08/05 07:17:41;;;;;;;0.00;0.00;;;20.20;37.10;;;;;;5046481;28;20052;-86
2023/08/05 07:20:07;;;;;;;0.15;0.10;;;20.20;52.80;;;;;;5046018;28;20146;-86
2023/08/05 07:22:35;;;;;;;0.00;0.00;;;19.90;43.90;;;;;;5046704;28;20069;-87
2023/08/05 07:25:00;;;;;;;0.17;0.17;;;19.80;60.40;;;;;;5045409;28;20055;-86
2023/08/05 07:27:27;;;;;;;0.17;0.17;;;19.80;69.60;;;;;;5047160;28;20062;-86
2023/08/05 07:29:52;;;;;;;0.38;0.25;;;19.70;97.10;;;;;;5046632;28;20063;-86
2023/08/05 07:32:18;;;;;;;0.00;0.00;;;19.60;73.20;;;;;;5046417;28;20675;-86
2023/08/05 07:34:45;;;;;;;0.35;0.25;;;19.60;76.40;;;;;;5044716;28;20056;-85
2023/08/05 07:37:14;;;;;;;0.10;0.10;;;19.50;60.10;;;;;;5046373;28;20045;-86
2023/08/05 07:39:45;;;;;;;0.10;0.10;;;19.40;62.80;;;;;;5045399;28;20040;-86
2023/08/05 07:42:11;;;;;;;0.00;0.00;;;20.10;77.50;;;;;;5046286;28;20051;-86
2023/08/05 07:44:40;;;;;;;0.05;0.05;;;19.00;97.00;;;;;;5046640;28;20049;-86
2023/08/05 07:47:06;;;;;;;0.63;0.63;;;19.20;99.90;;;;;;5046049;28;20037;-85
2023/08/05 07:49:32;;;;;;;0.17;0.17;;;19.90;99.90;;;;;;5046186;28;20060;-86
2023/08/05 07:51:58;;;;;;;0.00;0.00;;;20.80;99.90;;;;;;5046534;28;20045;-86
2023/08/05 07:54:24;;;;;;;1.10;0.40;;;21.40;99.90;;;;;;5046109;28;20045;-86
2023/08/05 07:56:51;;;;;;;0.77;0.15;;;21.70;96.80;;;;;;5046440;28;20621;-87
2023/08/05 07:59:18;;;;;;;0.00;0.00;;;21.50;72.10;;;;;;5046925;28;20403;-86
2023/08/05 08:01:45;;;;;;;1.75;0.65;;;20.90;22.00;;;;;;5047558;28;20053;-86
2023/08/05 08:04:14;;;;;;;0.25;0.25;;;20.90;32.90;;;;;;5048013;28;20120;-86
2023/08/05 08:06:42;;;;;;;0.63;0.32;;;20.90;41.50;;;;;;5047519;28;20091;-86
2023/08/05 08:09:07;;;;;;;0.05;0.05;;;21.10;52.80;;;;;;5046676;28;20049;-86
2023/08/05 08:11:33;;;;;;;0.03;0.03;;;21.20;54.00;;;;;;5046240;28;20063;-86
2023/08/05 08:13:59;;;;;;;0.85;0.45;;;22.00;96.60;;;;;;5046186;28;20127;-86
2023/08/05 08:16:25;;;;;;;0.10;0.10;;;22.30;97.40;;;;;;5045972;28;20080;-86
2023/08/05 08:18:50;;;;;;;0.00;0.00;;;22.30;48.90;;;;;;5042243;28;20415;-86
2023/08/05 08:21:16;;;;;;;0.43;0.10;;;22.30;95.50;;;;;;5040549;28;20440;-86
2023/08/05 08:23:41;;;;;;;0.22;0.22;;;22.50;92.00;;;;;;5040436;28;20124;-87
2023/08/05 08:26:07;;;;;;;0.00;0.00;;;22.20;29.40;;;;;;5038886;28;20055;-87
2023/08/05 08:28:33;;;;;;;0.10;0.10;;;22.10;19.40;;;;;;5040802;28;20052;-87
2023/08/05 08:30:59;;;;;;;0.00;0.00;;;22.00;1.50;;;;;;5041555;28;20059;-87
2023/08/05 08:33:25;;;;;;;0.00;0.00;;;21.60;1.00;;;;;;5038958;28;20400;-87
2023/08/05 08:35:51;;;;;;;0.43;0.40;;;21.30;1.00;;;;;;5038525;28;20067;-86
2023/08/05 08:38:18;;;;;;;0.17;0.15;;;20.90;1.00;;;;;;5040732;28;20467;-86
2023/08/05 08:40:47;;;;;;;0.22;0.22;;;20.70;1.00;;;;;;5042705;28;20044;-87
2023/08/05 08:43:16;;;;;;;0.08;0.08;;;20.60;1.00;;;;;;5042527;28;20060;-86
2023/08/05 08:45:42;;;;;;;0.05;0.03;;;20.60;1.00;;;;;;5042103;28;20050;-87
2023/08/05 08:48:09;;;;;;;0.17;0.17;;;20.60;1.00;;;;;;5023310;28;20155;-86
2023/08/05 08:50:37;;;;;;;0.10;0.08;;;20.50;1.00;;;;;;5040651;28;20507;-87
2023/08/05 08:53:06;;;;;;;0.00;0.00;;;21.10;1.00;;;;;;5041521;28;20052;-87
2023/08/05 08:55:32;;;;;;;0.28;0.20;;;21.50;10.20;;;;;;5041933;28;20048;-87
2023/08/05 08:57:58;;;;;;;0.30;0.20;;;21.90;1.00;;;;;;5042053;28;20125;-87
2023/08/05 09:00:26;;;;;;;0.00;0.00;;;22.00;1.00;;;;;;5040371;28;20055;-87
2023/08/05 09:02:53;;;;;;;0.35;0.35;;;23.30;8.30;;;;;;5038869;28;20103;-87
2023/08/05 09:05:19;;;;;;;0.03;0.03;;;22.90;1.00;;;;;;5040611;28;20074;-87
2023/08/05 09:07:46;;;;;;;0.10;0.10;;;22.70;1.00;;;;;;5039896;28;20045;-87
2023/08/05 09:10:12;;;;;;;0.32;0.32;;;23.10;1.00;;;;;;5038286;28;20044;-87
2023/08/05 09:12:38;;;;;;;0.08;0.08;;;23.00;1.00;;;;;;5040143;28;20408;-87
2023/08/05 09:15:04;;;;;;;0.10;0.10;;;22.50;1.00;;;;;;5038968;28;20071;-87
2023/08/05 09:17:39;;;;;;;0.00;0.00;;;22.20;1.00;;;;;;5043438;28;20041;-87
2023/08/05 09:20:24;;;;;;;0.00;0.00;;;22.10;1.00;;;;;;5044801;28;20368;-87
2023/08/05 09:22:55;;;;;;;0.23;0.20;;;22.80;1.00;;;;;;5043609;28;20044;-87
2023/08/05 09:25:22;;;;;;;0.00;0.00;;;23.70;1.00;;;;;;5044713;28;20128;-87
2023/08/05 09:27:48;;;;;;;0.65;0.40;;;24.80;18.60;;;;;;5045829;28;20468;-87
2023/08/05 09:30:17;;;;;;;0.20;0.13;;;25.60;12.10;;;;;;5044577;28;20048;-86
2023/08/05 09:32:45;;;;;;;0.10;0.10;;;25.30;1.00;;;;;;5043689;28;20037;-87
2023/08/05 09:35:12;;;;;;;0.20;0.20;;;24.60;1.00;;;;;;5043618;28;20142;-87
2023/08/05 09:37:40;;;;;;;0.10;0.10;;;25.00;1.00;;;;;;5044453;28;20123;-87
2023/08/05 09:40:41;;;;;;;0.00;0.00;;;25.50;1.00;;;;;;5044093;28;20084;-87
2023/08/05 09:43:08;;;;;;;0.63;0.35;;;26.00;99.90;;;;;;5032691;28;20088;-87
2023/08/05 09:45:33;;;;;;;1.23;0.70;;;26.30;99.90;;;;;;5043802;28;20433;-87
2023/08/05 09:48:10;;;;;;;0.00;0.00;;;26.10;99.90;;;;;;5043274;28;20045;-87
2023/08/05 09:50:37;;;;;;;0.10;0.10;;;26.20;99.90;;;;;;5043139;28;20068;-87
2023/08/05 09:53:06;;;;;;;0.05;0.05;;;26.10;99.90;;;;;;5045033;28;20064;-87
2023/08/05 09:55:33;;;;;;;0.35;0.22;;;24.80;99.90;;;;;;5043393;28;20113;-87
2023/08/05 09:57:59;;;;;;;0.43;0.30;;;25.30;99.90;;;;;;5044592;28;20045;-87
2023/08/05 10:00:25;;;;;;;0.45;0.20;;;25.70;99.90;;;;;;5044623;28;20052;-87
2023/08/05 10:02:52;;;;;;;0.25;0.25;;;25.30;99.90;;;;;;5043624;28;20048;-87
2023/08/05 10:05:18;;;;;;;0.00;0.00;;;25.00;99.90;;;;;;5042731;28;20124;-86
2023/08/05 10:07:44;;;;;;;0.17;0.17;;;25.30;99.90;;;;;;5026923;28;20083;-87
2023/08/05 10:10:21;;;;;;;0.17;0.17;;;25.00;99.90;;;;;;5044710;28;20037;-87
2023/08/05 10:13:01;;;;;;;0.17;0.10;;;24.60;99.90;;;;;;5037231;28;20491;-86
2023/08/05 10:15:29;;;;;;;1.35;0.75;;;24.20;99.90;;;;;;5043258;28;20055;-87
2023/08/05 10:17:55;;;;;;;0.77;0.20;;;24.00;99.90;;;;;;5043038;28;20052;-87
2023/08/05 10:20:21;;;;;;;0.00;0.00;;;23.90;99.90;;;;;;5043014;28;20052;-87
2023/08/05 10:23:07;;;;;;;0.00;0.00;;;23.70;99.90;;;;;;5026806;28;20081;-87
2023/08/05 10:25:44;;;;;;;0.15;0.15;;;23.40;99.90;;;;;;5042860;28;20060;-87
2023/08/05 10:28:31;;;;;;;0.10;0.10;;;22.80;99.90;;;;;;5042451;28;20128;-87
2023/08/05 10:30:57;;;;;;;0.20;0.20;;;23.10;99.90;;;;;;5043743;28;20585;-87
2023/08/05 10:33:25;;;;;;;0.20;0.10;;;23.00;99.90;;;;;;5042733;28;20044;-87
2023/08/05 10:36:05;;;;;;;0.17;0.17;;;22.90;99.90;;;;;;5044227;28;20049;-87
2023/08/05 10:38:41;;;;;;;0.10;0.10;;;22.10;99.90;;;;;;5042689;28;20132;-87
2023/08/05 10:41:10;;;;;;;2.42;1.38;;;22.10;99.90;;;;;;5041654;28;20052;-87
2023/08/05 10:43:40;;;;;;;0.95;0.40;;;22.70;99.90;;;;;;5042488;28;20056;-87
2023/08/05 10:46:06;;;;;;;0.40;0.35;;;23.80;99.90;;;;;;5042446;28;20531;-86
2023/08/05 10:48:41;;;;;;;0.45;0.30;;;24.20;99.90;;;;;;5043958;28;20045;-87
2023/08/05 10:51:27;;;;;;;0.22;0.17;;;23.60;99.90;;;;;;5042801;28;20052;-87
2023/08/05 10:53:56;;;;;;;0.00;0.00;;;24.00;99.90;;;;;;5043226;28;20056;-87
2023/08/05 10:56:32;;;;;;;0.00;0.00;;;23.80;99.90;;;;;;5043481;28;20060;-87
2023/08/05 10:59:02;;;;;;;0.35;0.30;;;23.30;99.90;;;;;;5043393;28;20048;-87
2023/08/05 11:01:55;;;;;;;0.10;0.10;;;22.70;99.90;;;;;;5043092;28;20045;-87
2023/08/05 11:04:29;;;;;;;0.20;0.20;;;23.40;99.90;;;;;;5042009;28;20102;-87
2023/08/05 11:06:56;;;;;;;0.45;0.32;;;23.20;99.90;;;;;;5043142;28;20103;-87
2023/08/05 11:09:22;;;;;;;0.10;0.10;;;24.40;99.90;;;;;;5041962;28;20774;-87
2023/08/05 11:11:48;;;;;;;0.00;0.00;;;23.90;99.90;;;;;;5042740;28;20049;-87
2023/08/05 11:14:16;;;;;;;0.10;0.10;;;24.20;99.90;;;;;;5043555;28;20575;-87
2023/08/05 11:16:45;;;;;;;0.15;0.15;;;24.60;99.90;;;;;;5043725;28;20049;-87
2023/08/05 11:19:12;;;;;;;0.00;0.00;;;24.50;99.90;;;;;;5041751;28;20514;-87
2023/08/05 11:21:42;;;;;;;0.55;0.38;;;23.70;99.90;;;;;;5043666;28;20045;-87
2023/08/05 11:24:16;;;;;;;0.20;0.20;;;22.90;99.90;;;;;;5041839;28;20052;-87
2023/08/05 11:26:42;;;;;;;0.15;0.10;;;22.80;99.90;;;;;;5043048;28;20040;-87
2023/08/05 11:29:08;;;;;;;0.15;0.15;;;23.10;99.90;;;;;;5041914;28;20048;-87
2023/08/05 11:31:34;;;;;;;0.20;0.13;;;22.90;99.90;;;;;;5041684;28;20407;-87
2023/08/05 11:33:59;;;;;;;2.22;0.38;;;23.10;99.90;;;;;;5042771;28;20052;-87
2023/08/05 11:36:26;;;;;;;0.20;0.20;;;23.30;99.90;;;;;;5042108;28;20044;-87
2023/08/05 11:38:56;;;;;;;0.00;0.00;;;23.40;99.90;;;;;;5041567;28;20064;-87
2023/08/05 11:41:23;;;;;;;0.10;0.10;;;23.10;99.90;;;;;;5041171;28;20127;-87
2023/08/05 11:43:49;;;;;;;0.52;0.30;;;23.00;99.90;;;;;;5042691;28;20139;-87
2023/08/05 11:46:27;;;;;;;1.75;0.98;;;23.50;99.90;;;;;;5042937;28;21109;-87
2023/08/05 11:49:09;;;;;;;7.55;0.70;;;22.90;99.90;;;;;;5041458;28;20041;-87
2023/08/05 11:51:49;;;;;;;0.00;0.00;;;22.70;99.90;;;;;;5028193;28;20045;-87
2023/08/05 11:54:28;;;;;;;4.05;0.90;;;22.40;99.90;;;;;;5041575;28;20083;-86
2023/08/05 11:56:55;;;;;;;0.30;0.30;;;21.80;99.90;;;;;;5041526;28;20052;-87
2023/08/05 11:59:39;;;;;;;0.60;0.52;;;21.60;99.90;;;;;;5042771;28;20037;-87
2023/08/05 12:02:07;;;;;;;0.30;0.20;;;21.80;99.90;;;;;;5042818;28;20071;-87
2023/08/05 12:04:50;;;;;;;0.00;0.00;;;21.60;99.90;;;;;;5041641;28;20045;-87
2023/08/05 12:07:20;;;;;;;0.35;0.22;;;21.60;99.90;;;;;;5041113;28;20471;-87
2023/08/05 12:10:07;;;;;;;0.00;0.00;;;21.60;99.90;;;;;;5041038;28;20414;-87
2023/08/05 12:12:34;;;;;;;0.00;0.00;;;22.30;99.90;;;;;;5024845;28;20060;-87
2023/08/05 12:15:24;;;;;;;0.30;0.20;;;22.60;99.90;;;;;;5041029;28;20090;-87
2023/08/05 12:17:51;;;;;;;0.08;0.08;;;22.60;99.90;;;;;;5032838;28;20120;-87
2023/08/05 12:20:23;;;;;;;0.35;0.22;;;22.30;99.90;;;;;;5040674;28;20044;-87
2023/08/05 12:22:50;;;;;;;1.55;0.63;;;22.70;99.90;;;;;;5040695;28;20056;-87
2023/08/05 12:25:16;;;;;;;0.05;0.00;;;22.60;99.90;;;;;;5040626;28;20056;-87
2023/08/05 12:27:42;;;;;;;0.15;0.10;;;22.30;99.90;;;;;;5041172;28;20048;-87
2023/08/05 12:30:09;;;;;;;0.10;0.10;;;22.00;99.90;;;;;;5024187;28;20045;-87
2023/08/05 12:32:35;;;;;;;0.95;0.43;;;22.40;99.90;;;;;;5042436;28;20344;-87
2023/08/05 12:35:05;;;;;;;0.35;0.32;;;22.50;99.90;;;;;;5040744;28;20068;-87
2023/08/05 12:37:33;;;;;;;4.03;1.17;;;22.50;99.90;;;;;;5041019;28;20466;-87
2023/08/05 12:40:00;;;;;;;0.15;0.15;;;22.30;99.90;;;;;;5040578;28;20091;-87
2023/08/05 12:42:26;;;;;;;0.22;0.22;;;22.20;99.90;;;;;;5041138;28;20040;-87
2023/08/05 12:44:51;;;;;;;2.72;0.63;;;22.40;99.90;;;;;;5040682;28;20079;-87
2023/08/05 12:47:18;;;;;;;0.68;0.52;;;21.90;99.90;;;;;;5034436;28;20045;-87
2023/08/05 12:49:44;;;;;;;0.28;0.13;;;21.70;99.90;;;;;;5040819;28;20503;-87